createdAt,value
2018-08-08T00:00:15.681Z,7.37
2018-08-08T00:02:43.651Z,8.40
2018-08-08T00:05:11.952Z,8.10
2018-08-08T00:07:40.536Z,7.97
2018-08-08T00:10:09.509Z,8.40
2018-08-08T00:12:38.137Z,8.97
2018-08-08T00:15:08.215Z,8.67
2018-08-08T00:17:37.449Z,9.97
2018-08-08T00:20:06.652Z,8.70
2018-08-08T00:22:36.333Z,10.47
2018-08-08T00:25:05.865Z,8.90
2018-08-08T00:27:35.542Z,9.47
2018-08-08T00:30:05.193Z,9.10
2018-08-08T00:32:33.760Z,8.27
2018-08-08T00:35:01.774Z,9.27
2018-08-08T00:37:30.153Z,8.37
2018-08-08T00:39:58.461Z,8.40
2018-08-08T00:42:26.385Z,9.17
2018-08-08T00:44:55.540Z,8.50
2018-08-08T00:47:23.808Z,8.80
2018-08-08T00:49:51.712Z,8.00
2018-08-08T00:52:19.584Z,8.03
2018-08-08T00:54:47.920Z,10.90
2018-08-08T00:57:16.318Z,8.97
2018-08-08T00:59:44.950Z,8.03
2018-08-08T01:02:13.845Z,8.07
2018-08-08T01:04:42.513Z,8.37
2018-08-08T01:07:11.009Z,8.63
2018-08-08T01:09:38.921Z,8.00
2018-08-08T01:12:07.596Z,8.33
2018-08-08T01:14:35.521Z,9.53
2018-08-08T01:17:04.248Z,8.70
2018-08-08T01:19:32.939Z,10.77
2018-08-08T01:22:00.855Z,8.47
2018-08-08T01:24:29.453Z,8.70
2018-08-08T01:26:58.345Z,8.97
2018-08-08T01:29:27.636Z,8.63
2018-08-08T01:31:55.557Z,8.90
2018-08-08T01:34:23.865Z,8.90
2018-08-08T01:36:51.632Z,9.00
2018-08-08T01:39:19.527Z,8.83
2018-08-08T01:41:48.041Z,8.03
2018-08-08T01:44:16.764Z,8.50
2018-08-08T01:46:45.106Z,7.97
2018-08-08T01:49:53.329Z,8.70
2018-08-08T01:52:21.532Z,8.40
2018-08-08T01:54:50.385Z,8.77
2018-08-08T01:57:19.167Z,8.30
2018-08-08T01:59:48.021Z,9.23
2018-08-08T02:02:16.312Z,9.70
2018-08-08T02:04:44.621Z,14.23
2018-08-08T02:07:13.617Z,8.43
2018-08-08T02:09:43.026Z,8.20
2018-08-08T02:12:11.284Z,8.83
2018-08-08T02:14:40.082Z,8.87
2018-08-08T02:17:08.762Z,8.10
2018-08-08T02:19:37.588Z,8.13
2018-08-08T02:22:06.502Z,9.03
2018-08-08T02:24:34.729Z,7.20
2018-08-08T02:27:04.633Z,9.23
2018-08-08T02:29:32.808Z,10.30
2018-08-08T02:32:00.985Z,8.60
2018-08-08T02:34:28.857Z,6.83
2018-08-08T02:36:57.351Z,8.60
2018-08-08T02:39:26.290Z,8.57
2018-08-08T02:41:54.609Z,8.10
2018-08-08T02:44:22.533Z,8.20
2018-08-08T02:46:50.406Z,8.23
2018-08-08T02:49:19.437Z,8.03
2018-08-08T02:51:47.341Z,8.63
2018-08-08T02:54:16.093Z,8.33
2018-08-08T02:56:44.773Z,8.47
2018-08-08T02:59:13.054Z,8.03
2018-08-08T03:01:40.922Z,7.40
2018-08-08T03:04:08.761Z,7.67
2018-08-08T03:06:36.960Z,7.20
2018-08-08T03:09:08.485Z,7.13
2018-08-08T03:11:36.889Z,8.07
2018-08-08T03:14:05.701Z,7.97
2018-08-08T03:16:33.646Z,7.30
2018-08-08T03:19:01.921Z,8.33
2018-08-08T03:21:30.913Z,8.87
2018-08-08T03:23:59.197Z,7.97
2018-08-08T03:26:27.204Z,8.33
2018-08-08T03:28:55.537Z,7.60
2018-08-08T03:31:23.453Z,8.00
2018-08-08T03:33:51.785Z,7.50
2018-08-08T03:36:19.767Z,8.23
2018-08-08T03:38:48.013Z,7.20
2018-08-08T03:41:15.885Z,8.53
2018-08-08T03:43:44.989Z,7.70
2018-08-08T03:46:13.685Z,7.10
2018-08-08T03:48:43.045Z,7.83
2018-08-08T03:51:11.781Z,7.97
2018-08-08T03:53:41.044Z,6.70
2018-08-08T03:56:08.814Z,7.10
2018-08-08T03:58:37.816Z,7.97
2018-08-08T04:01:05.618Z,10.97
2018-08-08T04:03:33.542Z,9.10
2018-08-08T04:06:01.837Z,9.37
2018-08-08T04:08:29.777Z,6.93
2018-08-08T04:11:01.277Z,8.00
2018-08-08T04:13:29.153Z,10.90
2018-08-08T04:15:57.060Z,7.17
2018-08-08T04:18:24.954Z,6.73
2018-08-08T04:20:52.836Z,7.17
2018-08-08T04:23:21.168Z,6.40
2018-08-08T04:25:49.337Z,8.43
2018-08-08T04:28:17.616Z,7.70
2018-08-08T04:30:45.521Z,7.93
2018-08-08T04:33:13.404Z,8.03
2018-08-08T04:35:42.377Z,7.97
2018-08-08T04:38:10.297Z,8.03
2018-08-08T04:40:38.633Z,7.60
2018-08-08T04:43:07.532Z,7.70
2018-08-08T04:45:35.885Z,7.00
2018-08-08T04:48:03.797Z,8.33
2018-08-08T04:50:31.969Z,8.53
2018-08-08T04:53:00.205Z,7.30
2018-08-08T04:55:28.825Z,6.93
2018-08-08T04:57:58.554Z,7.40
2018-08-08T05:00:26.889Z,8.67
2018-08-08T05:02:55.121Z,8.17
2018-08-08T05:05:23.368Z,8.50
2018-08-08T05:07:51.280Z,8.10
2018-08-08T05:10:19.530Z,8.10
2018-08-08T05:12:47.810Z,7.10
2018-08-08T05:15:18.081Z,7.93
2018-08-08T05:17:47.373Z,8.40
2018-08-08T05:20:15.386Z,8.27
2018-08-08T05:22:44.421Z,7.83
2018-08-08T05:25:12.455Z,9.77
2018-08-08T05:27:40.266Z,8.07
2018-08-08T05:30:11.061Z,8.20
2018-08-08T05:32:40.544Z,8.40
2018-08-08T05:35:09.318Z,8.10
2018-08-08T05:37:37.586Z,8.50
2018-08-08T05:40:09.045Z,6.93
2018-08-08T05:42:36.969Z,7.90
2018-08-08T05:45:07.758Z,6.77
2018-08-08T05:47:36.016Z,7.10
2018-08-08T05:50:05.477Z,7.13
2018-08-08T05:52:33.797Z,7.30
2018-08-08T05:55:02.747Z,6.93
2018-08-08T05:57:30.585Z,7.90
2018-08-08T05:59:59.245Z,8.83
2018-08-08T06:02:27.169Z,7.20
2018-08-08T06:04:55.352Z,6.90
2018-08-08T06:07:23.661Z,7.00
2018-08-08T06:09:51.549Z,6.20
2018-08-08T06:12:19.461Z,5.93
2018-08-08T06:14:47.674Z,6.50
2018-08-08T06:17:16.460Z,7.43
2018-08-08T06:19:45.350Z,7.33
2018-08-08T06:22:13.933Z,5.70
2018-08-08T06:24:41.729Z,6.03
2018-08-08T06:27:10.086Z,5.47
2018-08-08T06:29:38.805Z,5.60
2018-08-08T06:32:06.978Z,5.20
2018-08-08T06:34:34.841Z,6.10
2018-08-08T06:37:04.337Z,6.10
2018-08-08T06:39:35.114Z,6.63
2018-08-08T06:42:03.725Z,6.20
2018-08-08T06:44:31.623Z,5.80
2018-08-08T06:47:00.233Z,6.00
2018-08-08T06:49:28.581Z,7.53
2018-08-08T06:51:57.909Z,7.07
2018-08-08T06:54:26.181Z,5.20
2018-08-08T06:56:54.516Z,5.47
2018-08-08T06:59:22.330Z,7.27
2018-08-08T07:01:50.657Z,6.13
2018-08-08T07:04:18.525Z,6.70
2018-08-08T07:06:47.906Z,6.10
2018-08-08T07:09:16.205Z,5.27
2018-08-08T07:11:44.125Z,6.83
2018-08-08T07:14:12.711Z,5.90
2018-08-08T07:16:40.924Z,8.10
2018-08-08T07:19:08.878Z,6.77
2018-08-08T07:21:37.181Z,5.93
2018-08-08T07:24:05.660Z,6.27
2018-08-08T07:26:34.105Z,6.27
2018-08-08T07:29:02.914Z,6.23
2018-08-08T07:31:30.789Z,5.90
2018-08-08T07:33:59.237Z,6.10
2018-08-08T07:36:28.973Z,6.77
2018-08-08T07:38:56.927Z,6.10
2018-08-08T07:41:24.937Z,6.40
2018-08-08T07:43:53.541Z,6.47
2018-08-08T07:46:21.686Z,6.60
2018-08-08T07:48:49.518Z,6.40
2018-08-08T07:51:18.130Z,6.87
2018-08-08T07:53:46.078Z,6.60
2018-08-08T07:56:14.597Z,6.87
2018-08-08T07:58:43.274Z,7.27
2018-08-08T08:01:11.209Z,9.90
2018-08-08T08:03:39.132Z,7.87
2018-08-08T08:06:07.796Z,10.80
2018-08-08T08:08:38.531Z,6.77
2018-08-08T08:11:06.517Z,8.47
2018-08-08T08:13:34.944Z,14.43
2018-08-08T08:16:03.262Z,6.90
2018-08-08T08:18:31.428Z,9.47
2018-08-08T08:20:59.707Z,7.23
2018-08-08T08:23:28.632Z,9.70
2018-08-08T08:25:56.840Z,10.30
2018-08-08T08:28:24.965Z,8.20
2018-08-08T08:30:54.353Z,8.77
2018-08-08T08:33:22.577Z,7.60
2018-08-08T08:35:50.527Z,8.00
2018-08-08T08:38:18.467Z,8.20
2018-08-08T08:40:46.729Z,10.83
2018-08-08T08:43:15.009Z,6.03
2018-08-08T08:45:43.644Z,7.13
2018-08-08T08:48:11.605Z,8.10
2018-08-08T08:50:39.501Z,8.37
2018-08-08T08:53:07.773Z,7.90
2018-08-08T08:55:35.649Z,9.03
2018-08-08T08:58:03.944Z,7.60
2018-08-08T09:00:31.969Z,8.10
2018-08-08T09:03:00.309Z,5.97
2018-08-08T09:05:28.881Z,8.13
2018-08-08T09:07:56.785Z,8.93
2018-08-08T09:10:24.725Z,9.73
2018-08-08T09:12:52.645Z,6.30
2018-08-08T09:15:20.865Z,8.23
2018-08-08T09:17:50.524Z,7.03
2018-08-08T09:20:20.214Z,6.40
2018-08-08T09:22:48.460Z,6.83
2018-08-08T09:25:17.256Z,8.20
2018-08-08T09:27:45.836Z,8.60
2018-08-08T09:30:13.749Z,10.03
2018-08-08T09:32:43.352Z,8.17
2018-08-08T09:35:11.298Z,7.17
2018-08-08T09:37:40.992Z,7.33
2018-08-08T09:40:10.097Z,6.77
2018-08-08T09:42:38.070Z,7.23
2018-08-08T09:45:07.006Z,6.63
2018-08-08T09:47:35.384Z,6.87
2018-08-08T09:50:03.973Z,6.53
2018-08-08T09:52:33.157Z,6.83
2018-08-08T09:55:01.458Z,7.03
2018-08-08T09:57:30.197Z,7.93
2018-08-08T09:59:58.552Z,8.10
2018-08-08T10:02:43.132Z,11.50
2018-08-08T10:05:11.699Z,6.90
2018-08-08T10:07:39.613Z,7.00
2018-08-08T10:10:07.969Z,8.20
2018-08-08T10:12:37.042Z,7.03
2018-08-08T10:15:05.828Z,6.63
2018-08-08T10:17:34.417Z,7.03
2018-08-08T10:20:02.281Z,7.23
2018-08-08T10:22:30.960Z,6.83
2018-08-08T10:24:58.852Z,7.53
2018-08-08T10:27:26.764Z,7.23
2018-08-08T10:29:54.660Z,6.33
2018-08-08T10:32:23.253Z,6.53
2018-08-08T10:34:52.573Z,7.00
2018-08-08T10:37:21.221Z,5.53
2018-08-08T10:39:49.521Z,5.90
2018-08-08T10:42:17.745Z,5.90
2018-08-08T10:44:46.317Z,6.87
2018-08-08T10:47:15.065Z,6.10
2018-08-08T10:49:44.088Z,6.47
2018-08-08T10:52:13.020Z,6.37
2018-08-08T10:54:41.693Z,6.13
2018-08-08T10:57:09.989Z,7.20
2018-08-08T10:59:37.986Z,8.30
2018-08-08T11:02:05.870Z,8.40
2018-08-08T11:04:33.853Z,6.77
2018-08-08T11:07:02.302Z,6.20
2018-08-08T11:09:30.680Z,8.50
2018-08-08T11:11:58.914Z,6.80
2018-08-08T11:14:26.685Z,8.10
2018-08-08T11:16:54.641Z,8.23
2018-08-08T11:19:23.781Z,6.90
2018-08-08T11:21:51.750Z,7.37
2018-08-08T11:24:20.331Z,9.70
2018-08-08T11:26:48.237Z,6.73
2018-08-08T11:29:16.822Z,8.70
2018-08-08T11:31:45.165Z,6.97
2018-08-08T11:34:13.853Z,6.00
2018-08-08T11:36:41.546Z,5.93
2018-08-08T11:39:11.538Z,6.50
2018-08-08T11:41:40.193Z,5.83
2018-08-08T11:44:09.012Z,6.30
2018-08-08T11:46:37.010Z,10.43
2018-08-08T11:49:05.848Z,6.80
2018-08-08T11:51:33.989Z,7.83
2018-08-08T11:54:02.209Z,7.20
2018-08-08T11:56:30.104Z,6.47
2018-08-08T11:58:58.363Z,8.67
2018-08-08T12:01:27.347Z,6.00
2018-08-08T12:03:55.837Z,5.93
2018-08-08T12:06:24.416Z,5.67
2018-08-08T12:08:52.736Z,5.00
2018-08-08T12:11:21.196Z,6.40
2018-08-08T12:13:49.445Z,8.77
2018-08-08T12:16:17.546Z,5.60
2018-08-08T12:18:46.625Z,6.47
2018-08-08T12:21:14.889Z,5.50
2018-08-08T12:23:42.777Z,6.07
2018-08-08T12:26:11.214Z,5.00
2018-08-08T12:28:39.507Z,6.40
2018-08-08T12:31:07.798Z,6.40
2018-08-08T12:33:35.713Z,5.70
2018-08-08T12:36:03.520Z,5.80
2018-08-08T12:38:31.365Z,6.57
2018-08-08T12:40:59.251Z,6.43
2018-08-08T12:43:28.141Z,5.87
2018-08-08T12:45:56.320Z,5.63
2018-08-08T12:48:25.290Z,5.73
2018-08-08T12:50:53.583Z,5.80
2018-08-08T12:53:21.761Z,5.17
2018-08-08T12:55:49.636Z,5.50
2018-08-08T12:58:18.621Z,4.73
2018-08-08T13:00:46.878Z,6.53
2018-08-08T13:03:15.584Z,5.63
2018-08-08T13:05:44.881Z,5.30
2018-08-08T13:08:14.048Z,5.07
2018-08-08T13:10:43.161Z,4.93
2018-08-08T13:13:11.668Z,5.80
2018-08-08T13:15:40.358Z,6.77
2018-08-08T13:18:08.628Z,4.17
2018-08-08T13:20:37.326Z,4.57
2018-08-08T13:23:05.304Z,3.67
2018-08-08T13:25:33.632Z,4.77
2018-08-08T13:28:02.401Z,5.17
2018-08-08T13:30:31.130Z,4.67
2018-08-08T13:32:59.080Z,4.87
2018-08-08T13:35:27.033Z,4.30
2018-08-08T13:37:55.657Z,3.70
2018-08-08T13:40:24.042Z,3.70
2018-08-08T13:42:52.828Z,5.27
2018-08-08T13:45:20.777Z,3.83
2018-08-08T13:47:49.391Z,4.30
2018-08-08T13:50:17.340Z,4.40
2018-08-08T13:52:45.241Z,7.03
2018-08-08T13:55:13.217Z,4.83
2018-08-08T13:57:41.974Z,4.40
2018-08-08T14:00:10.153Z,4.03
2018-08-08T14:02:38.936Z,3.67
2018-08-08T14:05:07.824Z,4.20
2018-08-08T14:07:36.173Z,9.50
2018-08-08T14:10:06.337Z,3.83
2018-08-08T14:12:34.305Z,4.73
2018-08-08T14:15:02.264Z,5.10
2018-08-08T14:17:30.188Z,3.97
2018-08-08T14:19:58.083Z,4.03
2018-08-08T14:22:25.996Z,3.40
2018-08-08T14:24:54.337Z,3.63
2018-08-08T14:27:23.437Z,3.50
2018-08-08T14:29:52.116Z,3.70
2018-08-08T14:32:20.053Z,4.10
2018-08-08T14:34:47.961Z,4.00
2018-08-08T14:37:15.889Z,4.23
2018-08-08T14:39:45.160Z,4.17
2018-08-08T14:42:13.509Z,3.73
2018-08-08T14:44:41.776Z,4.13
2018-08-08T14:47:10.158Z,3.97
2018-08-08T14:49:39.251Z,3.90
2018-08-08T14:52:07.165Z,4.00
2018-08-08T14:54:35.069Z,3.60
2018-08-08T14:57:03.421Z,4.50
2018-08-08T14:59:32.166Z,5.40
2018-08-08T15:02:00.074Z,4.30
2018-08-08T15:04:28.821Z,4.10
2018-08-08T15:06:56.725Z,3.73
2018-08-08T15:09:25.373Z,3.40
2018-08-08T15:11:54.092Z,5.23
2018-08-08T15:14:23.278Z,3.97
2018-08-08T15:16:51.303Z,3.83
2018-08-08T15:19:20.405Z,3.90
2018-08-08T15:21:49.105Z,3.23
2018-08-08T15:24:17.037Z,3.83
2018-08-08T15:26:45.325Z,6.30
2018-08-08T15:29:13.237Z,3.87
2018-08-08T15:31:42.553Z,4.33
2018-08-08T15:34:10.898Z,4.83
2018-08-08T15:36:39.258Z,3.30
2018-08-08T15:39:08.789Z,3.50
2018-08-08T15:41:36.986Z,3.50
2018-08-08T15:44:06.257Z,3.63
2018-08-08T15:46:34.165Z,3.53
2018-08-08T15:49:03.364Z,3.60
2018-08-08T15:51:31.841Z,3.80
2018-08-08T15:54:00.180Z,3.60
2018-08-08T15:56:28.553Z,3.87
2018-08-08T15:58:57.146Z,3.43
2018-08-08T16:01:25.645Z,3.33
2018-08-08T16:03:53.740Z,6.27
2018-08-08T16:06:22.462Z,4.27
2018-08-08T16:08:50.352Z,4.63
2018-08-08T16:11:19.493Z,4.13
2018-08-08T16:13:48.025Z,4.03
2018-08-08T16:16:16.357Z,3.97
2018-08-08T16:18:44.300Z,3.57
2018-08-08T16:21:12.693Z,3.93
2018-08-08T16:23:41.025Z,3.47
2018-08-08T16:26:10.133Z,3.40
2018-08-08T16:28:38.416Z,4.10
2018-08-08T16:31:06.918Z,3.90
2018-08-08T16:33:35.261Z,3.67
2018-08-08T16:36:03.648Z,4.37
2018-08-08T16:38:31.970Z,3.90
2018-08-08T16:40:59.901Z,4.47
2018-08-08T16:43:28.677Z,3.70
2018-08-08T16:45:56.936Z,4.03
2018-08-08T16:48:25.637Z,4.37
2018-08-08T16:50:54.510Z,6.40
2018-08-08T16:53:23.557Z,3.97
2018-08-08T16:55:51.879Z,4.77
2018-08-08T16:58:20.593Z,4.40
2018-08-08T17:00:49.798Z,4.90
2018-08-08T17:03:18.893Z,4.03
2018-08-08T17:05:47.224Z,4.60
2018-08-08T17:08:15.563Z,4.13
2018-08-08T17:10:43.809Z,4.60
2018-08-08T17:13:13.336Z,4.20
2018-08-08T17:15:41.257Z,4.63
2018-08-08T17:18:09.556Z,4.40
2018-08-08T17:20:38.296Z,6.80
2018-08-08T17:23:06.422Z,4.53
2018-08-08T17:25:35.337Z,6.20
2018-08-08T17:28:05.213Z,5.40
2018-08-08T17:30:33.960Z,4.50
2018-08-08T17:33:06.181Z,4.60
2018-08-08T17:35:34.852Z,5.07
2018-08-08T17:38:03.977Z,4.63
2018-08-08T17:40:32.349Z,4.13
2018-08-08T17:43:00.781Z,5.60
2018-08-08T17:45:29.969Z,4.50
2018-08-08T17:47:59.480Z,4.87
2018-08-08T17:50:28.928Z,4.97
2018-08-08T17:52:57.485Z,5.00
2018-08-08T17:55:25.796Z,6.50
2018-08-08T17:57:53.757Z,4.70
2018-08-08T18:00:22.890Z,6.10
2018-08-08T18:02:52.269Z,5.20
2018-08-08T18:05:20.753Z,6.40
2018-08-08T18:07:49.108Z,8.23
2018-08-08T18:10:17.700Z,6.00
2018-08-08T18:12:45.985Z,7.23
2018-08-08T18:15:14.656Z,5.80
2018-08-08T18:17:42.841Z,6.97
2018-08-08T18:20:12.076Z,5.40
2018-08-08T18:22:40.433Z,5.87
2018-08-08T18:25:09.189Z,6.60
2018-08-08T18:27:37.967Z,6.17
2018-08-08T18:30:09.754Z,5.20
2018-08-08T18:32:37.984Z,6.20
2018-08-08T18:35:05.898Z,6.10
2018-08-08T18:37:35.009Z,8.50
2018-08-08T18:40:03.545Z,7.03
2018-08-08T18:42:34.281Z,5.60
2018-08-08T18:45:03.714Z,6.23
2018-08-08T18:47:35.172Z,5.40
2018-08-08T18:50:03.904Z,5.10
2018-08-08T18:52:32.656Z,6.23
2018-08-08T18:55:04.209Z,6.10
2018-08-08T19:00:07.449Z,6.80
2018-08-08T19:02:35.335Z,5.77
2018-08-08T19:05:04.566Z,6.10
2018-08-08T19:07:36.590Z,6.10
2018-08-08T19:12:43.653Z,5.90
2018-08-08T19:15:12.673Z,4.77
2018-08-08T19:17:41.851Z,6.80
2018-08-08T19:20:10.173Z,5.53
2018-08-08T19:22:38.629Z,5.03
2018-08-08T19:25:06.909Z,4.70
2018-08-08T19:27:34.805Z,4.97
2018-08-08T19:30:03.077Z,5.23
2018-08-08T19:32:33.234Z,4.20
2018-08-08T19:35:02.432Z,5.40
2018-08-08T19:37:30.957Z,4.63
2018-08-08T19:40:04.225Z,4.70
2018-08-08T19:42:33.169Z,4.20
2018-08-08T19:45:12.055Z,5.90
2018-08-08T19:47:41.333Z,6.23
2018-08-08T19:50:12.313Z,5.17
2018-08-08T19:52:43.776Z,4.47
2018-08-08T19:55:13.453Z,4.23
2018-08-08T19:57:42.193Z,4.87
2018-08-08T20:00:11.589Z,4.73
2018-08-08T20:02:41.878Z,4.00
2018-08-08T20:05:11.448Z,4.47
2018-08-08T20:07:39.300Z,4.87
2018-08-08T20:10:24.141Z,4.00
2018-08-08T20:12:53.510Z,3.67
2018-08-08T20:15:24.641Z,4.73
2018-08-08T20:17:52.860Z,4.53
2018-08-08T20:20:27.108Z,3.80
2018-08-08T20:23:01.013Z,3.83
2018-08-08T20:25:33.915Z,4.70
2018-08-08T20:28:01.825Z,3.43
2018-08-08T20:30:32.546Z,4.27
2018-08-08T20:33:04.265Z,4.00
2018-08-08T20:35:36.054Z,3.60
2018-08-08T20:40:56.192Z,4.07
2018-08-08T20:43:26.956Z,3.70
2018-08-08T20:45:55.413Z,4.00
2018-08-08T20:48:26.377Z,4.30
2018-08-08T20:50:54.710Z,3.97
2018-08-08T20:53:23.405Z,3.67
2018-08-08T20:55:54.265Z,3.80
2018-08-08T20:58:22.506Z,4.33
2018-08-08T21:00:52.965Z,3.73
2018-08-08T21:03:22.185Z,3.60
2018-08-08T21:05:51.337Z,3.60
2018-08-08T21:08:19.673Z,4.57
2018-08-08T21:10:48.373Z,3.87
2018-08-08T21:13:17.660Z,3.70
2018-08-08T21:15:46.029Z,3.90
2018-08-08T21:18:13.921Z,4.13
2018-08-08T21:20:42.344Z,3.63
2018-08-08T21:23:11.053Z,4.60
2018-08-08T21:25:43.524Z,4.40
2018-08-08T21:28:27.269Z,4.40
2018-08-08T21:30:55.177Z,3.40
2018-08-08T21:33:23.540Z,3.63
2018-08-08T21:35:54.269Z,6.33
2018-08-08T21:38:26.700Z,4.07
2018-08-08T21:40:55.156Z,4.77
2018-08-08T21:43:23.393Z,4.23
2018-08-08T21:45:51.734Z,5.50
2018-08-08T21:48:19.625Z,3.80
2018-08-08T21:50:47.451Z,3.50
2018-08-08T21:53:17.179Z,4.37
2018-08-08T21:55:59.705Z,5.03
2018-08-08T21:58:39.357Z,4.43
2018-08-08T22:01:18.539Z,4.90
2018-08-08T22:03:57.785Z,4.40
2018-08-08T22:06:44.453Z,4.40
2018-08-08T22:09:24.765Z,4.70
2018-08-08T22:12:07.901Z,4.97
2018-08-08T22:14:46.997Z,4.57
2018-08-08T22:17:27.640Z,4.40
2018-08-08T22:19:55.544Z,3.70
2018-08-08T22:22:23.792Z,3.60
2018-08-08T22:24:52.481Z,3.63
2018-08-08T22:27:21.109Z,4.00
2018-08-08T22:29:49.421Z,6.07
2018-08-08T22:32:18.097Z,4.27
2018-08-08T22:34:46.809Z,5.27
2018-08-08T22:37:16.149Z,4.33
2018-08-08T22:39:44.078Z,3.90
2018-08-08T22:42:11.953Z,8.50
2018-08-08T22:44:40.293Z,5.37
2018-08-08T22:47:08.206Z,3.90
2018-08-08T22:49:37.093Z,3.90
2018-08-08T22:52:06.749Z,3.63
2018-08-08T22:54:34.625Z,3.93
2018-08-08T22:57:03.449Z,5.90
2018-08-08T22:59:31.740Z,5.13
2018-08-08T23:02:00.926Z,3.83
2018-08-08T23:04:29.438Z,3.70
2018-08-08T23:06:57.693Z,3.40
2018-08-08T23:09:26.368Z,3.40
2018-08-08T23:11:55.273Z,3.70
2018-08-08T23:14:24.149Z,6.03
2018-08-08T23:16:52.514Z,3.77
2018-08-08T23:19:21.925Z,3.10
2018-08-08T23:21:57.103Z,4.10
2018-08-08T23:24:25.045Z,3.80
2018-08-08T23:26:54.408Z,3.00
2018-08-08T23:29:24.173Z,3.73
2018-08-08T23:31:52.093Z,3.43
2018-08-08T23:34:20.476Z,3.60
2018-08-08T23:36:49.197Z,3.00
2018-08-08T23:39:17.581Z,3.30
2018-08-08T23:41:46.669Z,3.20
2018-08-08T23:44:14.949Z,2.50
2018-08-08T23:46:44.109Z,3.17
2018-08-08T23:49:12.041Z,2.90
2018-08-08T23:51:40.602Z,3.00
2018-08-08T23:54:13.080Z,3.07
2018-08-08T23:56:41.860Z,2.97
2018-08-08T23:59:10.536Z,2.80
